Portada
METAR-TAF:

METAR-TAF

Aeroports :

Aeroport d'Ouagadougou

Ouagadougou, Burkina Faso

latitud: 12-21N, longitud: 001-31W, altitud: 316 m

Observació

L'informe es va fer fa 1 hora i 13 minuts, a les 11:00 UTC
Vent 8 kt del Est
Temperatura 30°C
Humitat 14%
Pressió 1016 hPa
Visibilitat: 6000 m

METAR: DFFD 181100Z 08008KT 6000 NSC 30/00 Q1016 NOSIG

Hora: 12:13 (12:13 UTC)

Pronòstic

L'informe es va fer fa 7 hores i 13 minuts, a les 05:00 UTC
Pronòstic vàlid del 18 a les 06 UTC al 19 a les 12 UTC
Vent 8 kt del Est/Nord-Est
Visibilitat: 8000 m
Temporalment
l' 18 a les 06 UTC al 18 a les 10 UTC
Visibilitat: 4000 m
Pols estès
Temporalment
l' 18 a les 17 UTC al 18 a les 20 UTC
Visibilitat: 4000 m
Pols estès
Temporalment
l' 19 a les 06 UTC al 19 a les 10 UTC
Visibilitat: 4000 m
Pols estès

TAF: DFFD 180500Z 1806/1912 07008KT 8000 NSC TEMPO 1806/1810 4000 DU TEMPO 1817/1820 4000 DU TEMPO 1906/1910 4000 DU

Observacions i pronòstics meteorològics de més de 4000 aeroports (METAR i TAF).

Les estacions disponibles són els punts grocs i vermells al mapa.

Posi el ratolí al punt desitjat per veure el nom de l'estació.

Feu clic per veure les observacions i els pronòstics meteorològics.

Per canviar el mapa: feu clic els botons verds amb una creu de color negre per apropar; al botó verd amb un guió per allunyar la imatge; o en les fletxes verdes per a mapes adjacents.


METAR-TAF: